Time;durP1;ratioP1;P1;durP2;ratioP2;P2;SDS_P1;SDS_P2;PMS_P1;PMS_P2;Temp;Humidity;BMP_temperature;BMP_pressure;BME280_temperature;BME280_humidity;BME280_pressure;Samples;Min_cycle;Max_cycle;Signal;HPM_P1;HPM_P2
2022/05/04 00:00:48;;;;;;;12.50;2.40;;;8.30;99.90;;;;;;4987279;28;20046;-79
2022/05/04 00:03:14;;;;;;;17.75;2.70;;;8.30;99.90;;;;;;4987049;28;20060;-77
2022/05/04 00:05:40;;;;;;;11.40;2.40;;;8.30;99.90;;;;;;5000786;28;20362;-78
2022/05/04 00:08:06;;;;;;;12.82;2.30;;;8.30;99.90;;;;;;4977913;28;20132;-80
2022/05/04 00:10:32;;;;;;;11.13;2.50;;;8.20;99.90;;;;;;4986776;28;20338;-78
2022/05/04 00:12:59;;;;;;;13.20;2.72;;;8.30;99.90;;;;;;5002511;28;20477;-80
2022/05/04 00:15:25;;;;;;;12.75;2.50;;;8.70;99.90;;;;;;4989593;28;20065;-78
2022/05/04 00:17:52;;;;;;;18.13;2.85;;;8.30;99.90;;;;;;5004417;28;20519;-80
2022/05/04 00:20:18;;;;;;;13.82;2.67;;;8.40;99.90;;;;;;5000244;28;20097;-80
2022/05/04 00:22:43;;;;;;;16.02;3.03;;;8.30;99.90;;;;;;4983061;28;20054;-81
2022/05/04 00:25:10;;;;;;;14.35;2.85;;;8.30;99.90;;;;;;4986194;28;20046;-81
2022/05/04 00:27:37;;;;;;;15.18;2.72;;;8.30;99.90;;;;;;4998129;28;20050;-79
2022/05/04 00:30:04;;;;;;;15.25;3.13;;;8.30;99.90;;;;;;5006767;28;20046;-79
2022/05/04 00:32:29;;;;;;;10.60;2.50;;;8.30;99.90;;;;;;5006983;28;20042;-76
2022/05/04 00:34:56;;;;;;;9.55;2.28;;;8.30;99.90;;;;;;5015700;28;20069;-74
2022/05/04 00:37:21;;;;;;;10.50;2.33;;;8.30;99.90;;;;;;5015060;28;20149;-77
2022/05/04 00:39:47;;;;;;;13.70;2.50;;;8.30;99.90;;;;;;5010406;28;20053;-81
2022/05/04 00:42:14;;;;;;;19.45;2.80;;;8.30;99.90;;;;;;5001784;28;20497;-78
2022/05/04 00:44:42;;;;;;;12.80;2.67;;;8.30;99.90;;;;;;4983071;28;20119;-78
2022/05/04 00:47:10;;;;;;;12.73;3.20;;;8.30;99.90;;;;;;4990104;28;20037;-79
2022/05/04 00:49:37;;;;;;;16.90;2.58;;;8.30;99.90;;;;;;4984753;28;20048;-76
2022/05/04 00:52:04;;;;;;;12.10;2.75;;;8.30;99.90;;;;;;4996967;28;20057;-83
2022/05/04 00:54:30;;;;;;;17.65;3.20;;;8.30;99.90;;;;;;5001276;28;20046;-81
2022/05/04 00:56:56;;;;;;;9.40;2.42;;;8.30;99.90;;;;;;4987372;28;20449;-81
2022/05/04 00:59:23;;;;;;;10.20;2.47;;;8.30;99.90;;;;;;5000901;28;20051;-77
2022/05/04 01:01:49;;;;;;;16.45;2.80;;;8.20;99.90;;;;;;4998372;28;20042;-80
2022/05/04 01:04:15;;;;;;;11.90;2.35;;;8.30;99.90;;;;;;4998605;28;20441;-82
2022/05/04 01:06:40;;;;;;;14.07;2.58;;;8.20;99.90;;;;;;4999652;28;20058;-76
2022/05/04 01:09:06;;;;;;;12.38;2.58;;;8.60;99.90;;;;;;5000535;28;20410;-80
2022/05/04 01:11:32;;;;;;;11.60;2.78;;;8.40;99.90;;;;;;4988938;28;20030;-80
2022/05/04 01:14:10;;;;;;;10.00;2.38;;;8.20;99.90;;;;;;4986448;28;20354;-78
2022/05/04 01:16:37;;;;;;;8.38;2.60;;;8.20;99.90;;;;;;4985765;28;20118;-77
2022/05/04 01:19:03;;;;;;;15.23;3.13;;;8.20;99.90;;;;;;5004216;28;20052;-78
2022/05/04 01:21:29;;;;;;;18.98;3.25;;;8.20;99.90;;;;;;5000806;28;20053;-78
2022/05/04 01:23:56;;;;;;;12.88;2.50;;;8.20;99.90;;;;;;5000561;28;20046;-78
2022/05/04 01:26:22;;;;;;;11.68;2.78;;;8.10;99.90;;;;;;4995044;28;20053;-78
2022/05/04 01:28:47;;;;;;;11.10;2.50;;;8.30;99.90;;;;;;4999839;28;20041;-78
2022/05/04 01:31:13;;;;;;;8.30;2.25;;;8.10;99.90;;;;;;5002323;28;20056;-79
2022/05/04 01:33:40;;;;;;;15.13;2.60;;;8.20;99.90;;;;;;5002121;28;20044;-79
2022/05/04 01:36:06;;;;;;;12.57;2.70;;;8.20;99.90;;;;;;4999125;28;20125;-76
2022/05/04 01:38:32;;;;;;;11.30;2.78;;;8.10;99.90;;;;;;5004776;28;20489;-79
2022/05/04 01:40:58;;;;;;;10.52;2.88;;;8.20;99.90;;;;;;5001032;28;20526;-77
2022/05/04 01:43:24;;;;;;;12.00;2.97;;;8.10;99.90;;;;;;5002530;28;20116;-80
2022/05/04 01:45:50;;;;;;;16.90;3.25;;;8.50;99.90;;;;;;4975214;28;20168;-81
2022/05/04 01:48:15;;;;;;;14.63;3.08;;;8.10;99.90;;;;;;5004720;28;20049;-76
2022/05/04 01:50:41;;;;;;;9.73;2.70;;;8.20;99.90;;;;;;5001838;28;20155;-79
2022/05/04 01:53:08;;;;;;;13.05;3.42;;;8.10;99.90;;;;;;5004217;28;20125;-78
2022/05/04 01:55:34;;;;;;;11.85;2.75;;;8.10;99.90;;;;;;5007337;28;20038;-80
2022/05/04 01:58:00;;;;;;;12.55;2.55;;;8.10;99.90;;;;;;5006282;28;20416;-79
2022/05/04 02:00:26;;;;;;;14.50;3.25;;;8.00;99.90;;;;;;5006648;28;20034;-81
2022/05/04 02:02:53;;;;;;;14.82;2.58;;;8.00;99.90;;;;;;4991977;28;20414;-75
2022/05/04 02:05:19;;;;;;;14.82;2.97;;;8.20;99.90;;;;;;5015257;28;20050;-77
2022/05/04 02:07:45;;;;;;;15.50;2.80;;;8.00;99.90;;;;;;5010030;28;20049;-80
2022/05/04 02:10:12;;;;;;;16.63;2.55;;;8.00;99.90;;;;;;5000410;28;20123;-80
2022/05/04 02:12:41;;;;;;;21.70;2.83;;;8.00;99.90;;;;;;4999389;28;20034;-80
2022/05/04 02:15:08;;;;;;;13.77;2.50;;;8.00;99.90;;;;;;4988185;28;20080;-82
2022/05/04 02:17:35;;;;;;;14.45;2.17;;;8.00;99.90;;;;;;4988827;28;20038;-81
2022/05/04 02:20:01;;;;;;;16.88;2.65;;;8.10;99.90;;;;;;4997263;28;20507;-80
2022/05/04 02:22:27;;;;;;;21.23;2.33;;;8.00;99.90;;;;;;4998987;28;20077;-83
2022/05/04 02:24:53;;;;;;;11.40;2.08;;;8.00;99.90;;;;;;5002198;28;20097;-77
2022/05/04 02:27:19;;;;;;;11.05;2.13;;;8.00;99.90;;;;;;5001356;28;20092;-78
2022/05/04 02:29:44;;;;;;;9.52;2.30;;;8.00;99.90;;;;;;4987423;28;20042;-76
2022/05/04 02:32:10;;;;;;;12.10;2.38;;;8.10;99.90;;;;;;5001249;28;20045;-79
2022/05/04 02:40:06;;;;;;;10.17;2.40;;;8.00;99.90;;;;;;4996300;28;20050;-82
2022/05/04 02:42:31;;;;;;;13.20;2.25;;;8.00;99.90;;;;;;4984610;28;20320;-76
2022/05/04 02:44:58;;;;;;;11.38;2.30;;;8.00;99.90;;;;;;4987050;28;20050;-78
2022/05/04 02:47:24;;;;;;;10.52;2.00;;;8.00;99.90;;;;;;4983340;28;20045;-76
2022/05/04 02:49:49;;;;;;;12.48;2.38;;;7.90;99.90;;;;;;4988696;28;20093;-77
2022/05/04 02:52:23;;;;;;;11.55;2.17;;;8.00;99.90;;;;;;5000704;28;20097;-81
2022/05/04 02:54:49;;;;;;;8.15;1.85;;;7.90;99.90;;;;;;4973264;28;20132;-76
2022/05/04 02:57:15;;;;;;;12.70;2.30;;;7.90;99.90;;;;;;4983732;28;20439;-77
2022/05/04 02:59:40;;;;;;;9.60;1.92;;;7.90;99.90;;;;;;5001142;28;20042;-78
2022/05/04 03:04:50;;;;;;;10.05;2.38;;;7.90;99.90;;;;;;5004731;28;20481;-80
2022/05/04 03:07:16;;;;;;;11.40;2.40;;;8.00;99.90;;;;;;5002164;28;20057;-81
2022/05/04 03:09:42;;;;;;;9.20;2.38;;;8.00;99.90;;;;;;5001644;28;20038;-77
2022/05/04 03:12:08;;;;;;;13.02;2.88;;;8.00;99.90;;;;;;5002826;28;20076;-83
2022/05/04 03:14:34;;;;;;;10.45;2.50;;;8.00;99.90;;;;;;5006994;28;20034;-78
2022/05/04 03:16:59;;;;;;;8.98;2.42;;;8.10;99.90;;;;;;5001544;28;20125;-79
2022/05/04 03:19:26;;;;;;;13.27;2.75;;;8.00;99.90;;;;;;5006913;28;20112;-80
2022/05/04 03:21:52;;;;;;;13.00;2.13;;;8.00;99.90;;;;;;4987280;28;20052;-78
2022/05/04 03:24:19;;;;;;;9.63;2.40;;;8.00;99.90;;;;;;5003810;28;20095;-77
2022/05/04 03:26:45;;;;;;;7.35;2.03;;;8.00;99.90;;;;;;5002454;28;20053;-82
2022/05/04 03:29:11;;;;;;;15.68;2.25;;;8.00;99.90;;;;;;4992382;28;20042;-80
2022/05/04 03:31:37;;;;;;;16.55;2.60;;;8.40;99.90;;;;;;4994491;28;20484;-81
2022/05/04 03:34:03;;;;;;;6.82;1.92;;;8.00;99.90;;;;;;5004474;28;20042;-80
2022/05/04 03:36:29;;;;;;;13.32;2.50;;;8.00;99.90;;;;;;5020699;28;20038;-75
2022/05/04 03:38:54;;;;;;;13.50;2.75;;;8.00;99.90;;;;;;5017246;28;20045;-76
2022/05/04 03:41:23;;;;;;;14.63;2.63;;;8.00;99.90;;;;;;5026912;28;20377;-81
2022/05/04 03:43:49;;;;;;;13.68;2.75;;;8.00;99.90;;;;;;5005624;28;20061;-80
2022/05/04 03:46:23;;;;;;;12.07;2.65;;;8.20;99.90;;;;;;5002881;28;20488;-76
2022/05/04 03:48:55;;;;;;;11.57;2.22;;;8.00;99.90;;;;;;5001559;28;20037;-82
2022/05/04 03:51:21;;;;;;;11.82;2.38;;;8.00;99.90;;;;;;4981500;28;20037;-81
2022/05/04 03:53:52;;;;;;;14.43;2.45;;;8.00;99.90;;;;;;4983884;28;20038;-81
2022/05/04 03:56:19;;;;;;;11.85;2.40;;;7.90;99.90;;;;;;5007372;28;20121;-79
2022/05/04 03:58:45;;;;;;;13.43;2.42;;;8.00;99.90;;;;;;4985872;28;20042;-77
2022/05/04 04:01:12;;;;;;;9.65;1.98;;;7.90;99.90;;;;;;4988535;28;20676;-78
2022/05/04 04:03:38;;;;;;;9.98;2.60;;;7.90;99.90;;;;;;4998471;28;20342;-78
2022/05/04 04:06:04;;;;;;;14.20;2.45;;;7.90;99.90;;;;;;4980956;28;20047;-77
2022/05/04 04:08:30;;;;;;;10.60;2.17;;;7.90;99.90;;;;;;4982425;28;20827;-79
2022/05/04 04:10:57;;;;;;;9.52;2.20;;;7.90;99.90;;;;;;4975935;28;20169;-82
2022/05/04 04:13:23;;;;;;;13.90;2.28;;;7.90;99.90;;;;;;4961984;28;20033;-77
2022/05/04 04:15:51;;;;;;;7.15;1.88;;;7.90;99.90;;;;;;4981202;28;20046;-79
2022/05/04 04:18:19;;;;;;;10.85;2.08;;;7.90;99.90;;;;;;4978008;28;20040;-79
2022/05/04 04:23:29;;;;;;;10.10;2.10;;;7.90;99.90;;;;;;4979981;28;20052;-78
2022/05/04 04:25:54;;;;;;;10.13;2.00;;;7.90;99.90;;;;;;4975633;28;20042;-79
2022/05/04 04:28:20;;;;;;;9.50;1.92;;;7.80;99.90;;;;;;4964372;28;20050;-80
2022/05/04 04:30:46;;;;;;;8.13;1.90;;;7.90;99.90;;;;;;4998617;28;20049;-77
2022/05/04 04:33:12;;;;;;;9.32;2.30;;;7.90;99.90;;;;;;4972246;28;21594;-82
2022/05/04 04:35:38;;;;;;;10.43;2.10;;;8.00;99.90;;;;;;4949138;28;20062;-79
2022/05/04 04:38:04;;;;;;;13.93;2.70;;;8.00;99.90;;;;;;4991009;28;20382;-79
2022/05/04 04:40:29;;;;;;;9.98;2.03;;;8.00;99.90;;;;;;4975216;28;20049;-75
2022/05/04 04:42:55;;;;;;;11.00;2.08;;;8.00;99.90;;;;;;4958898;28;20034;-83
2022/05/04 04:45:21;;;;;;;10.93;2.03;;;8.00;99.90;;;;;;4980580;28;20038;-78
2022/05/04 04:47:47;;;;;;;12.43;2.20;;;8.00;99.90;;;;;;4977317;28;20129;-81
2022/05/04 04:50:14;;;;;;;7.75;1.90;;;8.00;99.90;;;;;;4967782;28;20101;-76
2022/05/04 04:52:40;;;;;;;9.50;1.80;;;8.00;99.90;;;;;;4967985;28;20038;-79
2022/05/04 04:55:07;;;;;;;11.85;2.25;;;8.00;99.90;;;;;;4988386;28;20041;-81
2022/05/04 04:57:36;;;;;;;10.57;1.75;;;8.00;99.90;;;;;;4975494;28;20417;-79
2022/05/04 05:00:03;;;;;;;9.80;1.95;;;8.00;99.90;;;;;;4987807;28;20052;-76
2022/05/04 05:02:29;;;;;;;12.27;2.20;;;8.10;99.90;;;;;;4980178;28;20058;-78
2022/05/04 05:04:54;;;;;;;10.85;2.25;;;8.10;99.90;;;;;;4981433;28;20069;-79
2022/05/04 05:07:52;;;;;;;8.13;1.80;;;8.20;99.90;;;;;;5000557;28;20044;-77
2022/05/04 05:10:18;;;;;;;10.95;1.92;;;8.10;99.90;;;;;;4992366;28;20038;-79
2022/05/04 05:12:44;;;;;;;10.93;2.22;;;8.10;99.90;;;;;;5003014;28;20045;-82
2022/05/04 05:17:54;;;;;;;9.60;2.50;;;8.20;99.90;;;;;;4980122;28;20067;-83
2022/05/04 05:20:20;;;;;;;11.18;2.30;;;8.30;99.90;;;;;;5006441;28;20053;-77
2022/05/04 05:22:45;;;;;;;15.57;2.42;;;8.30;99.90;;;;;;4972392;28;20042;-80
2022/05/04 05:25:11;;;;;;;10.20;2.05;;;8.30;99.90;;;;;;4966418;28;20319;-82
2022/05/04 05:27:40;;;;;;;10.00;2.20;;;8.30;99.90;;;;;;4985822;28;20045;-82
2022/05/04 05:30:07;;;;;;;7.07;2.08;;;8.40;99.90;;;;;;4976992;28;20357;-77
2022/05/04 05:32:32;;;;;;;8.07;1.90;;;8.40;99.90;;;;;;5003556;28;20600;-79
2022/05/04 05:34:58;;;;;;;10.05;2.00;;;8.50;99.90;;;;;;4992201;28;20054;-80
2022/05/04 05:37:23;;;;;;;11.43;1.95;;;8.80;99.90;;;;;;4987703;28;20799;-79
2022/05/04 05:39:49;;;;;;;11.00;1.92;;;8.80;99.90;;;;;;4963949;28;20132;-79
2022/05/04 05:42:15;;;;;;;11.25;2.17;;;8.70;99.90;;;;;;4980624;28;20068;-77
2022/05/04 05:44:41;;;;;;;10.98;1.88;;;8.70;99.90;;;;;;4989203;28;20162;-80
2022/05/04 05:47:07;;;;;;;14.27;2.92;;;8.60;99.90;;;;;;4988396;28;20046;-80
2022/05/04 05:49:33;;;;;;;10.30;2.35;;;8.60;99.90;;;;;;4968823;28;20521;-78
2022/05/04 05:51:58;;;;;;;12.73;2.10;;;8.70;99.90;;;;;;4986788;28;20054;-79
2022/05/04 05:54:24;;;;;;;7.03;1.73;;;8.70;99.90;;;;;;4971749;28;20189;-81
2022/05/04 05:56:50;;;;;;;17.98;2.53;;;8.60;99.90;;;;;;4970204;28;20030;-79
2022/05/04 05:59:16;;;;;;;7.85;2.20;;;8.70;99.90;;;;;;4970735;28;20061;-79
2022/05/04 06:01:44;;;;;;;10.10;1.95;;;8.70;99.90;;;;;;4972092;28;20053;-79
2022/05/04 06:04:10;;;;;;;10.32;1.98;;;8.60;99.90;;;;;;4988753;28;20042;-79
2022/05/04 06:06:36;;;;;;;9.20;2.35;;;9.10;99.90;;;;;;4968196;28;20065;-79
2022/05/04 06:09:01;;;;;;;10.73;2.35;;;8.80;99.90;;;;;;4958620;28;20129;-77
2022/05/04 06:11:27;;;;;;;13.85;2.10;;;8.80;99.90;;;;;;4972763;28;20040;-77
2022/05/04 06:13:53;;;;;;;8.57;1.98;;;9.10;99.90;;;;;;4985196;28;20033;-77
2022/05/04 06:16:19;;;;;;;11.32;2.15;;;8.90;99.90;;;;;;4972568;28;20058;-79
2022/05/04 06:18:45;;;;;;;7.97;1.95;;;9.30;99.90;;;;;;4958733;28;20042;-82
2022/05/04 06:21:10;;;;;;;11.55;2.17;;;9.30;99.90;;;;;;4985652;28;20117;-80
2022/05/04 06:23:36;;;;;;;11.38;2.08;;;9.00;99.90;;;;;;4975358;28;20041;-82
2022/05/04 06:26:02;;;;;;;13.05;2.20;;;9.00;99.90;;;;;;4997103;28;20464;-80
2022/05/04 06:28:28;;;;;;;8.95;1.90;;;9.10;99.90;;;;;;4978304;28;20104;-75
2022/05/04 06:36:22;;;;;;;11.55;2.03;;;9.10;99.90;;;;;;5007708;28;20521;-79
2022/05/04 06:38:47;;;;;;;18.90;2.42;;;9.40;99.90;;;;;;4969491;28;20074;-81
2022/05/04 06:41:14;;;;;;;10.38;2.28;;;9.30;99.90;;;;;;4986752;28;20053;-79
2022/05/04 06:43:40;;;;;;;8.00;2.10;;;9.10;99.90;;;;;;4970325;28;20117;-80
2022/05/04 06:46:06;;;;;;;10.43;1.80;;;9.10;99.90;;;;;;4968329;28;20045;-78
2022/05/04 06:48:32;;;;;;;12.90;2.45;;;9.20;99.90;;;;;;4971959;28;20048;-78
2022/05/04 06:50:58;;;;;;;10.23;1.80;;;9.30;99.90;;;;;;4974803;28;20034;-78
2022/05/04 06:53:24;;;;;;;7.13;1.60;;;9.50;99.90;;;;;;4948677;28;20508;-82
2022/05/04 06:55:49;;;;;;;6.72;1.65;;;9.70;99.90;;;;;;5008141;28;20084;-79
2022/05/04 06:58:15;;;;;;;13.43;2.22;;;9.80;99.90;;;;;;4983808;28;20358;-83
2022/05/04 07:00:41;;;;;;;10.55;1.90;;;9.80;99.90;;;;;;4992725;28;20409;-83
2022/05/04 07:03:07;;;;;;;9.02;1.90;;;9.80;99.90;;;;;;4980915;28;20107;-80
2022/05/04 07:05:33;;;;;;;10.32;1.65;;;10.00;99.90;;;;;;4995640;28;20042;-80
2022/05/04 07:07:59;;;;;;;12.93;2.28;;;10.00;99.90;;;;;;4974770;28;20521;-82
2022/05/04 07:10:24;;;;;;;9.00;2.00;;;10.20;99.90;;;;;;4988509;28;20465;-83
2022/05/04 07:12:50;;;;;;;12.77;2.20;;;10.10;99.90;;;;;;5012185;28;20346;-82
2022/05/04 07:15:17;;;;;;;9.38;2.33;;;10.10;99.90;;;;;;4975293;28;20054;-82
2022/05/04 07:17:43;;;;;;;11.73;2.47;;;10.20;99.90;;;;;;4959474;28;20174;-78
2022/05/04 07:20:10;;;;;;;11.88;2.28;;;10.30;99.90;;;;;;4989611;28;20065;-78
2022/05/04 07:22:36;;;;;;;8.27;2.10;;;10.30;99.90;;;;;;4961794;28;20054;-82
2022/05/04 07:25:03;;;;;;;8.07;2.08;;;10.20;99.90;;;;;;4992902;28;20066;-82
2022/05/04 07:27:28;;;;;;;10.45;2.20;;;10.20;99.90;;;;;;4986160;28;20038;-81
2022/05/04 07:29:54;;;;;;;9.35;2.25;;;10.20;99.90;;;;;;5001343;28;20119;-78
2022/05/04 07:32:20;;;;;;;9.20;2.10;;;10.60;99.90;;;;;;4984474;28;20092;-78
2022/05/04 07:34:46;;;;;;;9.77;1.80;;;10.50;99.90;;;;;;4988170;28;20077;-79
2022/05/04 07:37:11;;;;;;;8.70;1.95;;;10.20;99.90;;;;;;4998273;28;20354;-79
2022/05/04 07:42:25;;;;;;;9.55;2.42;;;10.70;99.90;;;;;;4991466;28;20049;-77
2022/05/04 07:45:04;;;;;;;9.68;2.50;;;10.70;99.90;;;;;;4973456;28;20088;-78
2022/05/04 07:47:32;;;;;;;9.40;2.30;;;10.70;99.90;;;;;;4990608;28;20069;-75
2022/05/04 07:49:58;;;;;;;9.23;2.00;;;10.70;99.90;;;;;;4975351;28;20050;-74
2022/05/04 07:52:25;;;;;;;10.07;2.30;;;11.10;99.90;;;;;;4994291;28;20326;-74
2022/05/04 07:54:51;;;;;;;10.15;2.33;;;11.00;99.90;;;;;;4996713;28;20513;-79
2022/05/04 07:57:17;;;;;;;9.93;2.05;;;11.20;99.90;;;;;;4984020;28;20452;-79
2022/05/04 07:59:43;;;;;;;14.43;2.28;;;11.10;99.90;;;;;;4979535;28;20050;-75
2022/05/04 08:04:53;;;;;;;6.13;1.80;;;11.10;99.90;;;;;;4982164;28;20052;-77
2022/05/04 08:07:19;;;;;;;9.15;2.40;;;11.20;99.90;;;;;;4985210;28;20488;-76
2022/05/04 08:09:45;;;;;;;9.73;2.25;;;11.00;99.90;;;;;;4969073;28;20093;-75
2022/05/04 08:12:12;;;;;;;9.48;2.20;;;11.00;99.90;;;;;;4962853;28;20046;-81
2022/05/04 08:14:41;;;;;;;12.15;2.08;;;11.10;99.90;;;;;;4966749;28;20042;-76
2022/05/04 08:17:07;;;;;;;7.38;1.95;;;10.90;99.90;;;;;;4983857;28;20177;-75
2022/05/04 08:19:33;;;;;;;13.25;2.35;;;10.80;99.90;;;;;;4979371;28;20050;-78
2022/05/04 08:21:59;;;;;;;11.85;2.38;;;11.00;99.90;;;;;;4976829;28;20149;-81
2022/05/04 08:24:25;;;;;;;8.27;2.20;;;11.00;99.90;;;;;;4971839;28;20119;-77
2022/05/04 08:26:51;;;;;;;7.07;2.00;;;11.20;99.90;;;;;;4987181;28;20046;-76
2022/05/04 08:29:17;;;;;;;11.02;2.25;;;10.90;99.90;;;;;;4977454;28;20054;-76
2022/05/04 08:31:43;;;;;;;9.70;2.30;;;11.00;99.90;;;;;;4978980;28;20034;-74
2022/05/04 08:34:09;;;;;;;10.00;2.30;;;11.10;99.90;;;;;;4984967;28;20034;-76
2022/05/04 08:36:38;;;;;;;13.20;2.40;;;11.10;99.90;;;;;;4966327;28;20050;-79
2022/05/04 08:39:08;;;;;;;8.88;2.13;;;11.20;99.90;;;;;;4967920;28;20141;-76
2022/05/04 08:41:38;;;;;;;12.00;2.30;;;11.40;99.90;;;;;;4980056;28;20057;-76
2022/05/04 08:44:08;;;;;;;9.40;2.20;;;11.40;99.90;;;;;;4972597;28;20476;-76
2022/05/04 08:46:38;;;;;;;10.93;2.25;;;11.50;99.90;;;;;;4959632;28;20042;-76
2022/05/04 08:49:05;;;;;;;14.38;2.58;;;11.50;99.90;;;;;;4985320;28;20419;-73
2022/05/04 08:51:31;;;;;;;8.68;2.20;;;11.50;99.90;;;;;;4985430;28;20527;-76
2022/05/04 08:53:57;;;;;;;9.02;2.33;;;11.60;99.90;;;;;;5002746;28;20046;-74
2022/05/04 08:56:22;;;;;;;12.20;2.03;;;12.00;99.90;;;;;;5002415;28;20054;-71
2022/05/04 08:58:48;;;;;;;18.55;2.25;;;12.00;99.90;;;;;;4991004;28;20101;-75
2022/05/04 09:01:14;;;;;;;7.63;2.13;;;11.90;99.90;;;;;;5001121;28;20029;-76
2022/05/04 09:03:40;;;;;;;10.98;2.05;;;11.70;99.90;;;;;;5005094;28;20037;-74
2022/05/04 09:06:06;;;;;;;13.82;2.58;;;11.50;99.90;;;;;;5003176;28;20128;-75
2022/05/04 09:08:56;;;;;;;8.52;2.03;;;11.30;99.90;;;;;;5008946;28;20102;-72
2022/05/04 09:11:22;;;;;;;5.43;1.98;;;11.40;99.90;;;;;;4992273;28;20049;-77
2022/05/04 09:13:49;;;;;;;10.45;2.55;;;11.50;99.90;;;;;;4973524;28;20077;-73
2022/05/04 09:16:32;;;;;;;12.23;2.75;;;11.70;99.90;;;;;;4997056;28;20046;-74
2022/05/04 09:19:15;;;;;;;9.00;1.70;;;11.90;99.90;;;;;;5005759;28;20129;-85
2022/05/04 09:21:42;;;;;;;10.40;2.03;;;12.10;99.90;;;;;;4987077;28;20129;-84
2022/05/04 09:24:08;;;;;;;11.93;2.13;;;12.80;99.90;;;;;;4994108;28;20053;-85
2022/05/04 09:26:43;;;;;;;9.30;1.92;;;12.60;99.90;;;;;;4984320;28;20038;-84
2022/05/04 09:29:11;;;;;;;13.10;2.10;;;13.10;99.90;;;;;;4990358;28;20038;-81
2022/05/04 09:31:41;;;;;;;9.80;2.30;;;13.80;99.90;;;;;;4987151;28;20065;-79
2022/05/04 09:34:08;;;;;;;11.77;2.30;;;13.90;99.90;;;;;;4978556;28;20061;-79
2022/05/04 09:36:37;;;;;;;13.63;2.00;;;13.30;99.90;;;;;;4974204;28;20153;-82
2022/05/04 09:45:13;;;;;;;9.88;2.10;;;13.00;99.90;;;;;;4981256;28;20049;-81
2022/05/04 09:47:47;;;;;;;8.98;2.20;;;13.30;99.90;;;;;;4980400;28;20631;-81
2022/05/04 09:50:15;;;;;;;8.00;2.35;;;13.30;99.90;;;;;;4986049;28;20140;-81
2022/05/04 09:52:49;;;;;;;14.73;2.40;;;13.00;99.90;;;;;;4980980;28;20343;-81
2022/05/04 09:55:17;;;;;;;13.20;2.10;;;13.00;99.90;;;;;;4960976;28;20046;-82
2022/05/04 09:57:44;;;;;;;10.60;2.45;;;13.20;99.90;;;;;;4969393;28;20051;-83
2022/05/04 10:00:13;;;;;;;11.02;2.45;;;13.50;99.90;;;;;;4984037;28;20404;-81
2022/05/04 10:02:39;;;;;;;25.55;2.80;;;13.80;99.90;;;;;;4970630;28;20096;-79
2022/05/04 10:05:07;;;;;;;14.50;2.53;;;14.20;99.90;;;;;;4975865;28;20062;-78
2022/05/04 10:07:36;;;;;;;6.93;2.15;;;14.50;99.90;;;;;;4987839;28;20129;-84
2022/05/04 10:10:07;;;;;;;7.50;2.22;;;14.70;99.90;;;;;;4981303;28;20116;-81
2022/05/04 10:12:38;;;;;;;16.25;2.58;;;13.80;99.90;;;;;;4966568;28;20050;-81
2022/05/04 10:15:07;;;;;;;18.95;2.60;;;14.00;99.90;;;;;;5002396;28;20049;-85
2022/05/04 10:17:35;;;;;;;19.52;2.30;;;14.60;99.90;;;;;;4970312;28;20354;-81
2022/05/04 10:20:12;;;;;;;9.32;1.83;;;15.00;99.80;;;;;;4961312;28;20068;-82
2022/05/04 10:22:53;;;;;;;10.20;1.88;;;15.30;99.90;;;;;;4983533;28;20100;-84
2022/05/04 10:25:20;;;;;;;19.42;2.70;;;15.90;99.90;;;;;;4981291;28;20050;-85
2022/05/04 10:27:49;;;;;;;10.60;2.22;;;16.20;99.90;;;;;;4968682;28;20042;-85
2022/05/04 10:30:33;;;;;;;11.55;2.30;;;16.30;99.30;;;;;;4969520;28;20046;-82
2022/05/04 10:33:00;;;;;;;10.15;2.30;;;16.30;99.00;;;;;;5005543;28;20091;-84
2022/05/04 10:35:40;;;;;;;15.80;2.70;;;15.60;98.10;;;;;;4979753;28;20046;-80
2022/05/04 10:38:18;;;;;;;7.95;2.28;;;15.00;97.70;;;;;;4982662;28;20058;-80
2022/05/04 10:41:06;;;;;;;11.23;2.42;;;14.20;99.10;;;;;;5006728;28;20053;-83
2022/05/04 10:43:48;;;;;;;7.00;1.90;;;14.00;99.60;;;;;;4969643;28;20057;-84
2022/05/04 10:46:18;;;;;;;7.50;2.05;;;13.90;99.50;;;;;;4979673;28;20053;-82
2022/05/04 10:48:50;;;;;;;7.13;2.00;;;14.30;99.80;;;;;;4971438;28;20049;-88
2022/05/04 10:51:21;;;;;;;7.07;2.17;;;14.90;99.20;;;;;;4969229;28;20038;-78
2022/05/04 10:54:04;;;;;;;8.23;2.45;;;15.50;98.50;;;;;;4976620;28;20046;-78
2022/05/04 10:56:36;;;;;;;8.43;2.08;;;15.00;97.90;;;;;;4967483;28;20057;-81
2022/05/04 10:59:02;;;;;;;10.10;2.20;;;14.60;97.50;;;;;;4971369;28;20054;-83
2022/05/04 11:01:37;;;;;;;11.13;2.40;;;15.00;98.90;;;;;;4987955;28;20064;-77
2022/05/04 11:04:09;;;;;;;9.82;2.45;;;14.90;98.20;;;;;;4993757;28;20050;-80
2022/05/04 11:06:36;;;;;;;10.07;2.22;;;15.30;98.60;;;;;;4997759;28;20050;-79
2022/05/04 11:09:10;;;;;;;10.40;2.40;;;15.00;98.50;;;;;;4977792;28;20038;-80
2022/05/04 11:11:46;;;;;;;11.98;2.50;;;15.00;99.00;;;;;;4970079;28;20148;-78
2022/05/04 11:14:15;;;;;;;11.25;2.42;;;15.30;99.10;;;;;;4974269;28;20054;-79
2022/05/04 11:16:43;;;;;;;9.15;2.30;;;15.10;98.70;;;;;;4963283;28;20046;-80
2022/05/04 11:19:11;;;;;;;8.35;2.08;;;14.10;99.40;;;;;;4978096;28;20046;-77
2022/05/04 11:21:37;;;;;;;12.32;2.08;;;13.80;99.90;;;;;;4993112;28;20053;-81
2022/05/04 11:24:07;;;;;;;10.98;2.20;;;13.50;99.90;;;;;;4987138;28;20049;-78
2022/05/04 11:26:40;;;;;;;9.55;2.30;;;13.90;99.90;;;;;;4983908;28;20049;-78
2022/05/04 11:29:11;;;;;;;10.15;2.22;;;13.60;99.90;;;;;;5001144;28;20051;-76
2022/05/04 11:31:41;;;;;;;7.07;2.35;;;13.40;99.90;;;;;;4971707;28;20042;-78
2022/05/04 11:34:07;;;;;;;7.43;2.08;;;13.30;99.90;;;;;;4976792;28;20088;-79
2022/05/04 11:36:33;;;;;;;12.07;2.33;;;13.40;99.90;;;;;;4991584;28;20045;-79
2022/05/04 11:38:59;;;;;;;9.57;2.22;;;13.30;99.90;;;;;;4986393;28;20081;-84
2022/05/04 11:41:25;;;;;;;7.72;2.47;;;13.70;99.90;;;;;;4970688;28;20045;-82
2022/05/04 11:43:51;;;;;;;7.13;2.22;;;14.10;99.90;;;;;;4996869;28;20042;-81
2022/05/04 11:46:17;;;;;;;10.02;2.60;;;14.70;99.70;;;;;;4977931;28;20050;-82
2022/05/04 11:48:45;;;;;;;11.70;2.58;;;15.60;99.90;;;;;;4977676;28;20493;-77
2022/05/04 11:51:12;;;;;;;9.02;2.33;;;15.60;99.90;;;;;;4980601;28;20064;-78
2022/05/04 11:53:39;;;;;;;7.55;2.10;;;15.40;99.20;;;;;;4994318;28;20136;-79
2022/05/04 11:56:06;;;;;;;9.93;2.55;;;15.80;99.40;;;;;;4974653;28;20042;-75
2022/05/04 11:58:35;;;;;;;10.00;2.28;;;15.80;99.40;;;;;;4996856;28;20128;-79
2022/05/04 12:01:03;;;;;;;9.55;2.50;;;15.80;98.50;;;;;;5000979;28;20133;-76
2022/05/04 12:03:31;;;;;;;9.02;2.63;;;15.80;98.20;;;;;;5003967;28;20050;-74
2022/05/04 12:05:59;;;;;;;7.78;2.50;;;16.40;98.80;;;;;;5004296;28;20094;-75
2022/05/04 12:08:26;;;;;;;6.63;2.20;;;16.90;99.30;;;;;;4999117;28;20056;-83
2022/05/04 12:10:53;;;;;;;10.25;2.50;;;17.40;98.30;;;;;;4975220;28;20050;-77
2022/05/04 12:13:24;;;;;;;6.68;1.80;;;17.80;97.70;;;;;;4966027;28;20061;-76
2022/05/04 12:15:54;;;;;;;8.27;2.42;;;18.60;97.60;;;;;;4987664;28;20414;-79
2022/05/04 12:18:20;;;;;;;8.52;2.35;;;18.70;95.30;;;;;;4974279;28;20079;-80
2022/05/04 12:20:47;;;;;;;6.82;1.80;;;18.90;95.30;;;;;;4991033;28;20199;-83
2022/05/04 12:23:13;;;;;;;5.47;1.95;;;18.80;95.70;;;;;;4967139;28;20049;-82
2022/05/04 12:25:42;;;;;;;12.80;2.40;;;18.70;94.90;;;;;;4982743;28;20042;-79
2022/05/04 12:28:09;;;;;;;5.38;2.00;;;19.00;92.80;;;;;;4982174;28;20050;-80
2022/05/04 12:33:35;;;;;;;9.45;2.42;;;19.60;90.30;;;;;;4986243;28;20121;-81
2022/05/04 12:36:12;;;;;;;6.18;2.03;;;19.90;91.60;;;;;;4966474;28;20102;-79
2022/05/04 12:38:45;;;;;;;5.93;2.17;;;19.60;91.30;;;;;;4970059;28;20552;-83
2022/05/04 12:41:12;;;;;;;10.00;2.63;;;19.70;90.20;;;;;;4971618;28;20152;-78
2022/05/04 12:43:40;;;;;;;9.60;2.10;;;19.90;90.60;;;;;;4989263;28;20100;-80
2022/05/04 12:46:11;;;;;;;23.50;3.05;;;20.10;90.80;;;;;;4974144;28;20078;-80
2022/05/04 12:48:40;;;;;;;23.15;3.00;;;19.90;90.90;;;;;;4987383;28;20038;-80
2022/05/04 12:51:07;;;;;;;11.35;2.45;;;20.40;91.00;;;;;;4979717;28;20116;-81
2022/05/04 12:53:33;;;;;;;8.07;2.30;;;21.10;90.70;;;;;;4958163;28;20499;-80
2022/05/04 12:58:43;;;;;;;6.97;2.25;;;21.00;87.30;;;;;;4993064;28;20045;-79
2022/05/04 13:01:09;;;;;;;11.30;2.30;;;20.20;84.30;;;;;;4984663;28;20042;-80
2022/05/04 13:03:36;;;;;;;8.07;2.35;;;19.70;86.00;;;;;;4980934;28;20050;-79
2022/05/04 13:06:03;;;;;;;8.23;2.22;;;19.20;83.60;;;;;;4987349;28;20493;-79
2022/05/04 13:08:29;;;;;;;11.73;2.20;;;18.60;83.30;;;;;;5001769;28;20049;-80
2022/05/04 13:10:55;;;;;;;10.43;2.70;;;19.00;85.80;;;;;;4970361;28;20050;-82
2022/05/04 13:13:22;;;;;;;8.63;2.08;;;18.80;83.90;;;;;;4986871;28;20074;-76
2022/05/04 13:15:51;;;;;;;6.68;2.30;;;19.10;86.10;;;;;;4989921;28;20777;-79
2022/05/04 13:18:17;;;;;;;6.40;2.63;;;19.70;85.90;;;;;;4994431;28;20046;-80
2022/05/04 13:20:43;;;;;;;11.65;2.17;;;19.70;83.60;;;;;;4996411;28;20042;-76
2022/05/04 13:23:09;;;;;;;9.82;2.45;;;19.90;85.30;;;;;;4994143;28;20057;-75